createdAt,value
2023-04-02T00:12:24.779Z,765
2023-04-02T00:32:24.838Z,772
2023-04-02T00:52:24.803Z,771
2023-04-02T01:12:24.821Z,773
2023-04-02T01:52:24.922Z,772
2023-04-02T02:12:24.941Z,759
2023-04-02T02:32:25.007Z,760
2023-04-02T02:52:25.005Z,752
2023-04-02T03:12:25.026Z,746
2023-04-02T03:32:25.139Z,739
2023-04-02T03:52:25.153Z,738
2023-04-02T04:12:25.175Z,726
2023-04-02T04:32:25.299Z,731
2023-04-02T04:52:25.290Z,719
2023-04-02T05:12:25.299Z,721
2023-04-02T05:32:25.384Z,710
2023-04-02T05:52:25.362Z,711
2023-04-02T06:12:25.336Z,707
2023-04-02T06:32:25.443Z,703
2023-04-02T06:52:25.483Z,699
2023-04-02T08:12:25.663Z,680
2023-04-02T08:32:25.680Z,688
2023-04-02T08:52:25.740Z,682
2023-04-02T09:32:25.796Z,680
2023-04-02T09:52:32.854Z,672
2023-04-02T10:12:25.969Z,677
2023-04-02T10:32:26.092Z,673
2023-04-02T10:52:25.998Z,671
2023-04-02T11:32:26.050Z,661
2023-04-02T11:52:33.059Z,663
2023-04-02T12:12:26.030Z,663
2023-04-02T12:32:27.784Z,658
2023-04-02T12:52:26.183Z,656
2023-04-02T13:12:26.234Z,650
2023-04-02T13:32:26.293Z,649
2023-04-02T13:52:26.316Z,645
2023-04-02T14:12:26.340Z,643
2023-04-02T14:32:26.390Z,642
2023-04-02T15:12:33.456Z,636
2023-04-02T15:52:33.516Z,631
2023-04-02T16:12:33.590Z,634
2023-04-02T16:32:26.699Z,632
2023-04-02T16:52:26.628Z,632
2023-04-02T17:12:26.660Z,629
2023-04-02T17:32:26.763Z,625
2023-04-02T17:52:26.748Z,619
2023-04-02T18:12:33.811Z,620
2023-04-02T18:52:26.874Z,611
2023-04-02T19:32:40.977Z,602
2023-04-02T19:52:27.023Z,591
2023-04-02T20:12:34.058Z,593
2023-04-02T20:32:27.149Z,591
2023-04-02T21:12:41.216Z,590
2023-04-02T21:32:27.231Z,586
2023-04-02T22:12:34.418Z,582
2023-04-02T22:32:27.389Z,580
2023-04-02T22:52:27.432Z,580
2023-04-02T23:12:27.483Z,577
2023-04-02T23:32:27.536Z,575
2023-04-02T23:52:27.613Z,579
